Time;durP1;ratioP1;P1;durP2;ratioP2;P2;SDS_P1;SDS_P2;PMS_P1;PMS_P2;Temp;Humidity;BMP_temperature;BMP_pressure;BME280_temperature;BME280_humidity;BME280_pressure;Samples;Min_cycle;Max_cycle;Signal;HPM_P1;HPM_P2
2024/01/16 00:01:34;;;;;;;6.43;2.25;;;;;;;-2.10;100.00;96680.69;5032120;28;20041;-63
2024/01/16 00:04:00;;;;;;;4.53;2.65;;;;;;;-2.20;100.00;96678.31;5039990;28;20041;-64
2024/01/16 00:06:27;;;;;;;6.75;2.55;;;;;;;-2.31;100.00;96686.75;5040519;28;20725;-63
2024/01/16 00:08:54;;;;;;;6.22;2.55;;;;;;;-2.20;100.00;96685.44;5037237;28;20042;-64
2024/01/16 00:11:20;;;;;;;4.13;2.75;;;;;;;-2.11;100.00;96687.81;5035840;28;20049;-63
2024/01/16 00:13:48;;;;;;;5.25;2.83;;;;;;;-2.14;100.00;96680.22;5034832;28;20111;-64
2024/01/16 00:16:15;;;;;;;7.50;2.63;;;;;;;-2.17;100.00;96687.72;5039515;28;20047;-64
2024/01/16 00:18:42;;;;;;;7.53;3.13;;;;;;;-2.12;100.00;96678.22;5040128;28;20048;-64
2024/01/16 00:21:08;;;;;;;6.53;2.97;;;;;;;-2.10;100.00;96686.78;5038851;28;20041;-64
2024/01/16 00:23:35;;;;;;;5.78;2.88;;;;;;;-2.14;100.00;96685.50;5041635;28;20644;-64
2024/01/16 00:26:02;;;;;;;8.02;2.83;;;;;;;-2.04;100.00;96682.56;5033378;28;20041;-64
2024/01/16 00:28:28;;;;;;;9.40;3.58;;;;;;;-1.93;100.00;96689.19;5039042;28;20060;-64
2024/01/16 00:30:55;;;;;;;8.35;2.92;;;;;;;-2.16;100.00;96684.91;5040345;28;20041;-64
2024/01/16 00:33:22;;;;;;;5.78;2.47;;;;;;;-2.20;100.00;96686.28;5041249;28;20059;-64
2024/01/16 00:35:48;;;;;;;5.25;2.55;;;;;;;-2.25;100.00;96683.38;5044544;28;20048;-64
2024/01/16 00:38:15;;;;;;;8.38;2.95;;;;;;;-2.15;100.00;96685.69;5035081;28;20049;-63
2024/01/16 00:40:42;;;;;;;7.65;2.80;;;;;;;-2.18;100.00;96684.25;5032453;28;20428;-64
2024/01/16 00:43:08;;;;;;;7.53;3.13;;;;;;;-2.29;100.00;96685.56;5032618;28;20049;-64
2024/01/16 00:45:36;;;;;;;5.75;3.05;;;;;;;-2.20;100.00;96682.78;5028062;28;20040;-64
2024/01/16 00:48:04;;;;;;;5.65;3.10;;;;;;;-2.22;100.00;96680.31;5034601;28;20577;-64
2024/01/16 00:50:31;;;;;;;5.28;2.88;;;;;;;-2.14;100.00;96682.06;5040228;28;20453;-63
2024/01/16 00:52:58;;;;;;;6.43;2.45;;;;;;;-2.04;100.00;96684.38;5039200;28;20496;-64
2024/01/16 00:55:24;;;;;;;5.43;3.17;;;;;;;-2.20;100.00;96682.78;5043333;28;20045;-63
2024/01/16 00:57:51;;;;;;;5.35;2.45;;;;;;;-2.14;100.00;96677.56;5040103;28;20100;-63
2024/01/16 01:00:18;;;;;;;5.35;2.60;;;;;;;-2.22;100.00;96675.84;5038614;28;20049;-64
2024/01/16 01:02:44;;;;;;;5.53;2.70;;;;;;;-2.17;100.00;96674.47;5036033;28;20083;-63
2024/01/16 01:05:11;;;;;;;8.00;2.95;;;;;;;-2.18;100.00;96676.28;5029114;28;20052;-64
2024/01/16 01:07:38;;;;;;;4.85;2.75;;;;;;;-2.25;100.00;96675.41;5040774;28;20041;-63
2024/01/16 01:10:05;;;;;;;7.70;2.85;;;;;;;-2.29;100.00;96680.25;5037835;28;20540;-63
2024/01/16 01:12:31;;;;;;;5.65;2.95;;;;;;;-2.19;100.00;96679.97;5030468;28;20042;-63
2024/01/16 01:14:58;;;;;;;6.63;2.50;;;;;;;-2.14;100.00;96685.50;5034531;28;20467;-63
2024/01/16 01:17:25;;;;;;;6.43;3.58;;;;;;;-2.16;100.00;96684.06;5035758;28;20132;-63
2024/01/16 01:19:51;;;;;;;9.38;4.25;;;;;;;-2.13;100.00;96684.50;5031998;28;20556;-63
2024/01/16 01:22:18;;;;;;;6.63;2.80;;;;;;;-2.18;100.00;96691.41;5032341;28;20422;-63
2024/01/16 01:24:44;;;;;;;7.57;3.38;;;;;;;-2.20;100.00;96686.28;5033277;28;20037;-62
2024/01/16 01:27:11;;;;;;;7.47;2.90;;;;;;;-2.15;100.00;96686.53;5039140;28;20045;-63
2024/01/16 01:29:37;;;;;;;5.15;2.78;;;;;;;-2.16;100.00;96694.66;5042150;28;20503;-64
2024/01/16 01:32:04;;;;;;;5.88;3.13;;;;;;;-2.24;100.00;96695.63;5036812;28;20045;-63
2024/01/16 01:34:30;;;;;;;8.27;3.80;;;;;;;-2.34;100.00;96698.56;5041243;28;20075;-63
2024/01/16 01:36:57;;;;;;;5.88;3.40;;;;;;;-2.41;100.00;96702.94;5028970;28;20043;-63
2024/01/16 01:39:24;;;;;;;7.53;2.78;;;;;;;-2.44;100.00;96700.69;5026424;28;20045;-63
2024/01/16 01:41:51;;;;;;;5.15;2.70;;;;;;;-2.58;100.00;96703.16;5049141;28;20047;-64
2024/01/16 01:44:17;;;;;;;5.82;3.05;;;;;;;-2.68;100.00;96716.72;5033313;28;20065;-63
2024/01/16 01:46:45;;;;;;;8.38;2.90;;;;;;;-2.71;100.00;96710.94;5031045;28;20047;-63
2024/01/16 01:49:15;;;;;;;8.95;3.05;;;;;;;-2.66;100.00;96721.84;5031944;28;20102;-64
2024/01/16 01:51:41;;;;;;;6.80;3.20;;;;;;;-2.71;100.00;96725.03;5036694;28;20095;-63
2024/01/16 01:54:09;;;;;;;5.03;2.53;;;;;;;-2.72;100.00;96722.56;5037771;28;20041;-64
2024/01/16 01:56:36;;;;;;;5.50;2.65;;;;;;;-2.76;100.00;96722.09;5027395;28;20044;-63
2024/01/16 01:59:03;;;;;;;5.10;2.90;;;;;;;-2.80;100.00;96726.94;5037265;28;20111;-64
2024/01/16 02:01:31;;;;;;;6.40;2.92;;;;;;;-2.80;100.00;96721.63;5033378;28;20051;-63
2024/01/16 02:03:59;;;;;;;7.03;2.72;;;;;;;-2.78;100.00;96716.16;5029213;28;20041;-64
2024/01/16 02:06:25;;;;;;;6.65;3.30;;;;;;;-2.76;100.00;96709.66;5037921;28;20033;-64
2024/01/16 02:08:53;;;;;;;6.35;3.50;;;;;;;-2.77;100.00;96715.97;5029457;28;20103;-63
2024/01/16 02:11:20;;;;;;;5.28;2.80;;;;;;;-2.80;100.00;96705.72;5030586;28;20045;-64
2024/01/16 02:13:46;;;;;;;4.80;2.90;;;;;;;-2.85;100.00;96716.06;5033845;28;20552;-63
2024/01/16 02:16:23;;;;;;;5.82;2.97;;;;;;;-2.85;100.00;96712.63;5035664;28;20072;-63
2024/01/16 02:18:52;;;;;;;9.02;3.20;;;;;;;-2.82;100.00;96717.53;5033909;28;20041;-64
2024/01/16 02:21:25;;;;;;;7.90;2.95;;;;;;;-2.85;100.00;96724.00;5036989;28;20045;-63
2024/01/16 02:23:52;;;;;;;8.02;3.38;;;;;;;-2.88;100.00;96716.41;5035692;28;20048;-63
2024/01/16 02:26:20;;;;;;;7.22;2.80;;;;;;;-2.90;100.00;96713.97;5037859;28;20040;-63
2024/01/16 02:28:47;;;;;;;5.72;2.58;;;;;;;-2.94;100.00;96715.34;5026738;28;20094;-64
2024/01/16 02:31:13;;;;;;;4.72;2.50;;;;;;;-2.93;100.00;96718.81;5044363;28;20045;-63
2024/01/16 02:33:40;;;;;;;7.78;3.38;;;;;;;-2.86;100.00;96714.44;5027276;28;20040;-63
2024/01/16 02:36:07;;;;;;;6.03;3.00;;;;;;;-2.87;100.00;96712.78;5039571;28;20037;-63
2024/01/16 02:38:34;;;;;;;6.45;3.25;;;;;;;-2.91;100.00;96709.66;5035375;28;21470;-63
2024/01/16 02:41:00;;;;;;;7.15;3.40;;;;;;;-2.91;100.00;96709.66;5045954;28;20102;-63
2024/01/16 02:43:27;;;;;;;6.40;3.28;;;;;;;-2.96;100.00;96713.84;5030005;28;20037;-64
2024/01/16 02:45:54;;;;;;;5.32;3.10;;;;;;;-3.07;100.00;96708.00;5043331;28;20043;-63
2024/01/16 02:48:20;;;;;;;7.32;2.83;;;;;;;-3.11;100.00;96708.53;5045215;28;20547;-63
2024/01/16 02:50:48;;;;;;;4.70;2.88;;;;;;;-3.14;100.00;96712.38;5030385;28;20038;-64
2024/01/16 02:53:14;;;;;;;7.43;3.03;;;;;;;-3.16;100.00;96709.91;5040366;28;20131;-63
2024/01/16 02:55:41;;;;;;;6.90;3.10;;;;;;;-3.28;100.00;96720.13;5033095;28;20126;-63
2024/01/16 02:58:07;;;;;;;6.63;2.80;;;;;;;-3.41;100.00;96714.63;5046916;28;20053;-63
2024/01/16 03:00:34;;;;;;;6.95;3.42;;;;;;;-3.49;100.00;96720.81;5044353;28;20040;-63
2024/01/16 03:03:00;;;;;;;7.47;3.20;;;;;;;-3.45;100.00;96722.13;5034264;28;20492;-63
2024/01/16 03:05:27;;;;;;;5.47;2.75;;;;;;;-3.48;100.00;96721.63;5035563;28;20050;-62
2024/01/16 03:07:54;;;;;;;6.07;2.83;;;;;;;-3.57;100.00;96727.00;5043284;28;20417;-63
2024/01/16 03:10:20;;;;;;;5.15;3.13;;;;;;;-3.62;100.00;96726.72;5039490;28;20041;-64
2024/01/16 03:12:47;;;;;;;6.28;3.08;;;;;;;-3.63;100.00;96721.59;5038043;28;20105;-63
2024/01/16 03:15:13;;;;;;;4.72;2.80;;;;;;;-3.80;100.00;96725.19;5031683;28;20080;-64
2024/01/16 03:17:40;;;;;;;6.07;2.63;;;;;;;-3.89;100.00;96723.59;5037131;28;20037;-64
2024/01/16 03:20:08;;;;;;;11.63;2.92;;;;;;;-4.05;100.00;96730.63;5031035;28;20125;-64
2024/01/16 03:22:35;;;;;;;5.35;2.80;;;;;;;-4.20;100.00;96725.28;5032717;28;20037;-63
2024/01/16 03:25:02;;;;;;;5.25;2.40;;;;;;;-4.33;100.00;96736.41;5050736;28;20040;-64
2024/01/16 03:27:29;;;;;;;8.50;2.83;;;;;;;-4.53;100.00;96733.38;5040990;28;20056;-63
2024/01/16 03:29:56;;;;;;;5.88;2.97;;;;;;;-4.76;100.00;96728.81;5035597;28;20049;-63
2024/01/16 03:32:22;;;;;;;6.20;3.03;;;;;;;-5.07;100.00;96732.22;5037899;28;20041;-63
2024/01/16 03:34:49;;;;;;;8.13;3.10;;;;;;;-5.27;100.00;96735.22;5031845;28;20124;-63
2024/01/16 03:37:16;;;;;;;5.78;2.85;;;;;;;-5.38;100.00;96732.94;5042245;28;20055;-63
2024/01/16 03:39:44;;;;;;;6.57;2.58;;;;;;;-5.54;100.00;96733.75;5040923;28;20136;-63
2024/01/16 03:42:12;;;;;;;7.97;3.17;;;;;;;-5.63;100.00;96738.22;5038939;28;20033;-63
2024/01/16 03:44:40;;;;;;;8.13;2.88;;;;;;;-5.72;100.00;96737.38;5039804;28;20036;-62
2024/01/16 03:47:07;;;;;;;5.05;2.45;;;;;;;-5.76;100.00;96738.69;5042782;28;20069;-61
2024/01/16 03:49:34;;;;;;;8.85;2.97;;;;;;;-5.94;100.00;96730.94;5040660;28;20165;-62
2024/01/16 03:52:01;;;;;;;5.90;2.55;;;;;;;-6.13;100.00;96735.53;5034889;28;20045;-62
2024/01/16 03:54:27;;;;;;;7.22;2.67;;;;;;;-6.24;100.00;96733.25;5043138;28;20037;-63
2024/01/16 03:56:55;;;;;;;6.97;3.55;;;;;;;-6.33;100.00;96725.31;5041871;28;20048;-62
2024/01/16 03:59:22;;;;;;;8.25;3.10;;;;;;;-6.37;100.00;96723.16;5036005;28;20041;-62
2024/01/16 04:01:49;;;;;;;7.72;3.33;;;;;;;-6.29;100.00;96715.25;5027208;28;20068;-62
2024/01/16 04:04:16;;;;;;;8.80;2.72;;;;;;;-6.34;100.00;96722.84;5041625;28;20041;-62
2024/01/16 04:06:43;;;;;;;5.25;3.10;;;;;;;-6.55;100.00;96729.34;5046688;28;20041;-63
2024/01/16 04:09:09;;;;;;;6.63;3.47;;;;;;;-6.69;100.00;96728.97;5035864;28;20118;-62
2024/01/16 04:11:36;;;;;;;9.55;3.63;;;;;;;-6.81;100.00;96724.97;5040372;28;20045;-62
2024/01/16 04:14:02;;;;;;;7.10;3.70;;;;;;;-6.92;100.00;96723.44;5047403;28;20055;-63
2024/01/16 04:16:29;;;;;;;9.75;3.13;;;;;;;-6.98;100.00;96724.06;5036659;28;20041;-63
2024/01/16 04:18:55;;;;;;;9.85;4.38;;;;;;;-7.03;100.00;96734.22;5037409;28;20049;-63
2024/01/16 04:21:22;;;;;;;8.77;3.30;;;;;;;-7.06;100.00;96733.56;5034275;28;20688;-63
2024/01/16 04:23:48;;;;;;;6.60;2.85;;;;;;;-7.04;100.00;96738.69;5030738;28;20040;-63
2024/01/16 04:26:15;;;;;;;7.70;3.22;;;;;;;-7.02;100.00;96735.88;5033372;28;20052;-62
2024/01/16 04:28:42;;;;;;;5.68;3.05;;;;;;;-6.99;100.00;96733.78;5035257;28;20065;-62
2024/01/16 04:31:11;;;;;;;6.85;3.00;;;;;;;-7.05;100.00;96729.13;5035455;28;20315;-62
2024/01/16 04:33:38;;;;;;;7.57;2.90;;;;;;;-7.09;100.00;96723.34;5030888;28;20121;-61
2024/01/16 04:36:06;;;;;;;7.75;3.33;;;;;;;-7.07;100.00;96731.09;5034758;28;20640;-61
2024/01/16 04:38:33;;;;;;;8.20;2.80;;;;;;;-7.17;100.00;96731.19;5033289;28;20041;-63
2024/01/16 04:41:03;;;;;;;10.05;3.47;;;;;;;-7.11;100.00;96719.22;5037529;28;20068;-63
2024/01/16 04:43:30;;;;;;;4.53;2.13;;;;;;;-7.08;100.00;96714.47;5031987;28;20539;-62
2024/01/16 04:45:56;;;;;;;5.05;2.83;;;;;;;-7.03;100.00;96715.81;5038578;28;20094;-62
2024/01/16 04:48:25;;;;;;;11.30;3.15;;;;;;;-7.02;100.00;96706.91;5030622;28;20116;-63
2024/01/16 04:50:52;;;;;;;7.82;2.88;;;;;;;-6.95;100.00;96711.41;5034570;28;20041;-61
2024/01/16 04:53:19;;;;;;;7.05;2.83;;;;;;;-6.91;100.00;96701.38;5035463;28;20943;-62
2024/01/16 04:55:45;;;;;;;7.03;3.33;;;;;;;-6.93;100.00;96704.19;5026671;28;20496;-62
2024/01/16 04:58:12;;;;;;;7.13;3.30;;;;;;;-7.06;100.00;96702.00;5040526;28;20099;-62
2024/01/16 05:00:38;;;;;;;8.88;3.40;;;;;;;-6.84;100.00;96702.41;5040390;28;20041;-62
2024/01/16 05:03:05;;;;;;;9.07;3.28;;;;;;;-7.02;100.00;96707.75;5030951;28;20044;-63
2024/01/16 05:05:32;;;;;;;11.05;4.22;;;;;;;-7.09;100.00;96704.09;5038253;28;20068;-62
2024/01/16 05:08:01;;;;;;;8.13;3.22;;;;;;;-7.32;100.00;96707.25;5030957;28;20048;-62
2024/01/16 05:10:27;;;;;;;6.30;2.78;;;;;;;-7.39;100.00;96708.84;5031983;28;20046;-63
2024/01/16 05:12:53;;;;;;;10.98;4.15;;;;;;;-7.44;100.00;96711.97;5034172;28;20068;-62
2024/01/16 05:15:20;;;;;;;10.18;3.70;;;;;;;-7.41;100.00;96709.00;5031181;28;20604;-65
2024/01/16 05:17:47;;;;;;;8.27;4.18;;;;;;;-7.38;100.00;96707.91;5033707;28;20049;-64
2024/01/16 05:20:13;;;;;;;12.40;3.92;;;;;;;-7.30;100.00;96702.66;5036709;28;20437;-64
2024/01/16 05:22:40;;;;;;;7.65;3.33;;;;;;;-7.24;100.00;96704.69;5034985;28;20049;-64
2024/01/16 05:25:07;;;;;;;9.43;4.38;;;;;;;-7.35;100.00;96700.50;5028700;28;20045;-65
2024/01/16 05:27:34;;;;;;;10.13;4.57;;;;;;;-7.34;100.00;96698.72;5034121;28;20040;-64
2024/01/16 05:30:01;;;;;;;13.07;5.10;;;;;;;-7.37;100.00;96693.75;5034953;28;20060;-65
2024/01/16 05:32:27;;;;;;;10.95;4.55;;;;;;;-7.34;100.00;96689.00;5024572;28;20037;-64
2024/01/16 05:34:54;;;;;;;9.98;4.75;;;;;;;-7.23;100.00;96695.81;5038478;28;20047;-65
2024/01/16 05:37:20;;;;;;;11.57;4.38;;;;;;;-7.22;100.00;96686.94;5032126;28;20049;-64
2024/01/16 05:39:47;;;;;;;8.23;3.90;;;;;;;-7.15;100.00;96694.22;5043188;28;20112;-64
2024/01/16 05:42:14;;;;;;;11.82;3.70;;;;;;;-7.18;100.00;96688.25;5042630;28;20440;-64
2024/01/16 05:44:41;;;;;;;11.93;4.65;;;;;;;-6.99;100.00;96690.81;5034528;28;20116;-63
2024/01/16 05:47:07;;;;;;;8.20;3.50;;;;;;;-6.98;100.00;96682.78;5034430;28;20037;-64
2024/01/16 05:49:34;;;;;;;10.85;4.10;;;;;;;-7.00;100.00;96676.03;5030672;28;20042;-64
2024/01/16 05:52:00;;;;;;;10.40;3.53;;;;;;;-7.16;100.00;96672.31;5038565;28;20051;-64
2024/01/16 05:54:27;;;;;;;14.07;4.10;;;;;;;-7.15;100.00;96670.53;5039118;28;20093;-64
2024/01/16 05:56:54;;;;;;;12.15;4.05;;;;;;;-7.13;100.00;96668.56;5036902;28;20034;-65
2024/01/16 05:59:20;;;;;;;7.20;3.45;;;;;;;-7.13;100.00;96674.66;5040269;28;20107;-64
2024/01/16 06:01:47;;;;;;;9.43;4.20;;;;;;;-7.25;100.00;96668.00;5038167;28;20037;-64
2024/01/16 06:04:13;;;;;;;9.38;3.72;;;;;;;-7.28;100.00;96669.16;5034709;28;20049;-64
2024/01/16 06:06:44;;;;;;;10.68;4.57;;;;;;;-7.19;100.00;96668.19;5037978;28;20110;-64
2024/01/16 06:09:13;;;;;;;13.05;6.10;;;;;;;-7.09;100.00;96667.25;5037124;28;20049;-64
2024/01/16 06:11:43;;;;;;;14.43;5.55;;;;;;;-7.00;100.00;96668.13;5033116;28;20036;-65
2024/01/16 06:14:11;;;;;;;10.65;5.05;;;;;;;-6.96;100.00;96659.75;5029117;28;20111;-64
2024/01/16 06:16:38;;;;;;;10.98;4.60;;;;;;;-6.94;100.00;96670.13;5032104;28;20045;-64
2024/01/16 06:19:05;;;;;;;7.63;3.53;;;;;;;-6.88;100.00;96672.13;5041064;28;20082;-64
2024/01/16 06:21:31;;;;;;;7.38;3.83;;;;;;;-6.92;100.00;96676.06;5045513;28;20803;-64
2024/01/16 06:23:58;;;;;;;8.77;3.90;;;;;;;-6.88;100.00;96676.56;5041493;28;20638;-64
2024/01/16 06:26:24;;;;;;;11.10;4.03;;;;;;;-6.89;100.00;96672.28;5036844;28;20258;-63
2024/01/16 06:28:51;;;;;;;8.65;5.05;;;;;;;-6.89;100.00;96669.66;5028620;28;20053;-65
2024/01/16 06:31:18;;;;;;;6.18;3.28;;;;;;;-6.83;100.00;96679.53;5031220;28;20045;-64
2024/01/16 06:33:44;;;;;;;5.70;2.92;;;;;;;-6.68;100.00;96672.69;5042817;28;20068;-64
2024/01/16 06:36:11;;;;;;;10.27;3.60;;;;;;;-6.34;100.00;96675.41;5048033;28;20485;-64
2024/01/16 06:38:39;;;;;;;6.15;3.30;;;;;;;-6.10;100.00;96682.50;5032015;28;20551;-64
2024/01/16 06:41:06;;;;;;;5.97;2.80;;;;;;;-5.94;100.00;96673.75;5039169;28;20125;-64
2024/01/16 06:43:33;;;;;;;11.55;2.80;;;;;;;-5.69;100.00;96671.13;5037632;28;20120;-64
2024/01/16 06:46:00;;;;;;;5.07;3.08;;;;;;;-5.55;100.00;96667.00;5031662;28;20045;-64
2024/01/16 06:48:26;;;;;;;11.25;2.95;;;;;;;-5.45;100.00;96677.38;5040931;28;20052;-64
2024/01/16 06:50:53;;;;;;;8.00;3.20;;;;;;;-5.33;100.00;96683.13;5026684;28;20052;-64
2024/01/16 06:53:20;;;;;;;9.02;3.58;;;;;;;-5.29;100.00;96679.16;5032593;28;20444;-64
2024/01/16 06:55:46;;;;;;;6.30;2.50;;;;;;;-5.27;100.00;96678.97;5038697;28;20050;-64
2024/01/16 06:58:13;;;;;;;6.47;2.85;;;;;;;-5.27;100.00;96681.63;5039647;28;20045;-64
2024/01/16 07:00:41;;;;;;;10.05;2.95;;;;;;;-5.22;100.00;96681.94;5031914;28;20683;-64
2024/01/16 07:03:08;;;;;;;7.32;3.13;;;;;;;-5.27;100.00;96684.25;5034518;28;20045;-64
2024/01/16 07:05:34;;;;;;;6.47;3.15;;;;;;;-5.18;100.00;96688.53;5040123;28;20063;-64
2024/01/16 07:08:01;;;;;;;5.80;2.53;;;;;;;-5.30;100.00;96680.16;5043275;28;20054;-64
2024/01/16 07:10:27;;;;;;;5.65;2.63;;;;;;;-5.39;100.00;96676.69;5036515;28;20044;-64
2024/01/16 07:12:55;;;;;;;7.95;3.45;;;;;;;-5.39;100.00;96676.69;5040987;28;20159;-61
2024/01/16 07:15:21;;;;;;;7.45;2.95;;;;;;;-5.58;100.00;96672.59;5031534;28;20045;-61
2024/01/16 07:17:48;;;;;;;6.10;3.13;;;;;;;-5.67;100.00;96671.78;5034598;28;20060;-60
2024/01/16 07:20:15;;;;;;;9.38;3.03;;;;;;;-5.61;100.00;96671.13;5037757;28;20055;-62
2024/01/16 07:22:41;;;;;;;7.55;3.40;;;;;;;-5.48;100.00;96681.13;5025664;28;20054;-61
2024/01/16 07:25:09;;;;;;;6.88;3.55;;;;;;;-5.41;100.00;96677.84;5032421;28;20044;-61
2024/01/16 07:27:35;;;;;;;6.32;2.80;;;;;;;-5.38;100.00;96669.59;5034862;28;20056;-61
2024/01/16 07:30:04;;;;;;;5.90;2.95;;;;;;;-5.32;100.00;96671.56;5035618;28;20052;-60
2024/01/16 07:32:31;;;;;;;6.47;3.00;;;;;;;-5.45;100.00;96661.53;5030831;28;20046;-61
2024/01/16 07:34:58;;;;;;;7.75;3.67;;;;;;;-5.61;100.00;96659.72;5039634;28;20045;-62
2024/01/16 07:37:25;;;;;;;5.47;3.30;;;;;;;-5.51;100.00;96656.91;5033989;28;20046;-61
2024/01/16 07:39:51;;;;;;;5.55;2.90;;;;;;;-5.38;100.00;96659.06;5042562;28;20067;-61
2024/01/16 07:42:18;;;;;;;12.05;3.92;;;;;;;-5.24;100.00;96662.78;5030994;28;20060;-62
2024/01/16 07:44:44;;;;;;;8.05;3.05;;;;;;;-5.22;100.00;96661.66;5043273;28;20447;-62
2024/01/16 07:47:11;;;;;;;6.80;2.78;;;;;;;-5.15;100.00;96661.78;5037433;28;20054;-61
2024/01/16 07:49:38;;;;;;;5.65;2.60;;;;;;;-5.11;100.00;96668.38;5029069;28;20041;-61
2024/01/16 07:52:05;;;;;;;4.22;2.20;;;;;;;-5.14;100.00;96671.34;5034782;28;20041;-62
2024/01/16 07:54:31;;;;;;;7.90;2.80;;;;;;;-5.07;100.00;96668.03;5044707;28;20549;-61
2024/01/16 07:56:59;;;;;;;7.50;3.40;;;;;;;-5.06;100.00;96670.50;5043665;28;20033;-61
2024/01/16 07:59:26;;;;;;;3.60;1.90;;;;;;;-4.89;100.00;96666.00;5034319;28;20725;-62
2024/01/16 08:01:53;;;;;;;7.80;2.55;;;;;;;-4.87;100.00;96671.09;5035962;28;20045;-61
2024/01/16 08:04:20;;;;;;;7.45;3.80;;;;;;;-4.88;100.00;96672.09;5034504;28;20041;-59
2024/01/16 08:06:47;;;;;;;7.63;2.80;;;;;;;-5.09;100.00;96676.94;5035486;28;20048;-52
2024/01/16 08:09:14;;;;;;;6.35;3.20;;;;;;;-5.11;100.00;96673.66;5031756;28;20614;-52
2024/01/16 08:11:40;;;;;;;7.15;3.20;;;;;;;-5.13;100.00;96672.16;5035878;28;20051;-52
2024/01/16 08:14:08;;;;;;;8.98;3.40;;;;;;;-5.04;100.00;96672.97;5037294;28;20116;-61
2024/01/16 08:16:35;;;;;;;5.22;2.83;;;;;;;-4.88;100.00;96677.38;5033311;28;20048;-60
2024/01/16 08:19:03;;;;;;;8.20;3.10;;;;;;;-4.86;100.00;96670.91;5035933;28;20047;-62
2024/01/16 08:21:30;;;;;;;6.78;2.95;;;;;;;-4.81;100.00;96674.84;5036672;28;20044;-61
2024/01/16 08:23:56;;;;;;;7.93;3.75;;;;;;;-4.68;100.00;96671.69;5041491;28;20416;-60
2024/01/16 08:26:23;;;;;;;7.25;3.63;;;;;;;-4.71;100.00;96678.94;5044062;28;20132;-60
2024/01/16 08:28:50;;;;;;;6.47;2.95;;;;;;;-4.86;100.00;96686.75;5031001;28;20734;-63
2024/01/16 08:31:20;;;;;;;5.97;2.50;;;;;;;-4.88;100.00;96694.03;5040132;28;20094;-63
2024/01/16 08:33:47;;;;;;;6.25;2.80;;;;;;;-4.88;100.00;96695.84;5046742;28;20519;-62
2024/01/16 08:36:18;;;;;;;7.60;2.75;;;;;;;-4.75;100.00;96690.03;5030700;28;20045;-62
2024/01/16 08:38:44;;;;;;;4.57;2.65;;;;;;;-4.70;100.00;96693.81;5029405;28;20082;-61
2024/01/16 08:41:11;;;;;;;5.60;2.95;;;;;;;-4.76;100.00;96702.41;5037066;28;20057;-60
2024/01/16 08:43:37;;;;;;;5.70;2.75;;;;;;;-4.68;100.00;96709.50;5031369;28;20139;-62
2024/01/16 08:46:04;;;;;;;14.63;3.40;;;;;;;-4.66;100.00;96710.13;5038620;28;20029;-59
2024/01/16 08:48:31;;;;;;;6.40;2.97;;;;;;;-4.60;100.00;96696.22;5034490;28;20385;-62
2024/01/16 08:50:58;;;;;;;5.75;2.60;;;;;;;-4.47;100.00;96706.25;5039097;28;20037;-62
2024/01/16 08:53:27;;;;;;;6.00;2.75;;;;;;;-4.45;100.00;96701.59;5044801;28;20036;-61
2024/01/16 08:55:54;;;;;;;9.48;3.25;;;;;;;-4.35;100.00;96692.66;5037230;28;20048;-61
2024/01/16 08:58:20;;;;;;;5.97;3.22;;;;;;;-4.32;100.00;96698.41;5034998;28;20122;-61
2024/01/16 09:00:47;;;;;;;7.57;3.10;;;;;;;-4.31;100.00;96694.75;5042346;28;20802;-63
2024/01/16 09:03:14;;;;;;;6.13;2.85;;;;;;;-4.18;100.00;96699.50;5040441;28;20064;-62
2024/01/16 09:05:40;;;;;;;4.35;2.90;;;;;;;-4.01;100.00;96701.19;5044049;28;20039;-60
2024/01/16 09:08:07;;;;;;;9.05;2.55;;;;;;;-3.85;100.00;96698.44;5036951;28;20099;-59
2024/01/16 09:10:38;;;;;;;8.47;3.33;;;;;;;-3.84;100.00;96710.66;5037076;28;20554;-60
2024/01/16 09:13:04;;;;;;;6.20;2.97;;;;;;;-3.91;100.00;96707.06;5031722;28;20509;-62
2024/01/16 09:15:30;;;;;;;7.10;3.30;;;;;;;-3.92;100.00;96700.13;5034276;28;20572;-60
2024/01/16 09:17:57;;;;;;;10.65;2.85;;;;;;;-3.90;100.00;96708.75;5036213;28;20650;-61
2024/01/16 09:20:24;;;;;;;7.25;3.40;;;;;;;-3.93;100.00;96711.72;5039294;28;20041;-61
2024/01/16 09:22:50;;;;;;;7.50;2.78;;;;;;;-3.84;100.00;96723.09;5046572;28;20056;-61
2024/01/16 09:25:17;;;;;;;8.13;2.95;;;;;;;-3.79;100.00;96716.25;5033753;28;20532;-60
2024/01/16 09:27:43;;;;;;;5.75;3.22;;;;;;;-3.73;100.00;96720.00;5046853;28;20033;-63
2024/01/16 09:30:12;;;;;;;5.90;2.70;;;;;;;-3.66;100.00;96707.72;5043738;28;20120;-61
2024/01/16 09:32:39;;;;;;;4.63;2.72;;;;;;;-3.54;100.00;96717.91;5037903;28;20053;-62
2024/01/16 09:35:08;;;;;;;8.52;3.17;;;;;;;-3.36;100.00;96712.25;5038378;28;20045;-63
2024/01/16 09:37:35;;;;;;;5.18;2.38;;;;;;;-3.10;100.00;96712.88;5039490;28;20136;-62
2024/01/16 09:40:05;;;;;;;5.65;2.55;;;;;;;-2.91;100.00;96714.16;5045245;28;20073;-62
2024/01/16 09:42:31;;;;;;;7.35;2.88;;;;;;;-2.79;100.00;96715.34;5038566;28;20636;-61
2024/01/16 09:45:00;;;;;;;6.80;2.80;;;;;;;-2.60;100.00;96715.78;5034876;28;20049;-61
2024/01/16 09:47:27;;;;;;;4.85;2.97;;;;;;;-2.50;100.00;96718.16;5031800;28;20120;-61
2024/01/16 09:49:54;;;;;;;5.30;2.75;;;;;;;-2.29;100.00;96700.66;5038666;28;20142;-62
2024/01/16 09:52:21;;;;;;;6.25;3.33;;;;;;;-2.14;100.00;96692.66;5036827;28;20049;-62
2024/01/16 09:54:48;;;;;;;4.97;2.78;;;;;;;-2.04;100.00;96703.78;5035914;28;20044;-59
2024/01/16 09:57:18;;;;;;;6.70;3.17;;;;;;;-1.80;97.03;96695.66;5037445;28;20041;-62
2024/01/16 09:59:45;;;;;;;5.15;2.83;;;;;;;-1.63;97.26;96690.88;5041706;28;20045;-62
2024/01/16 10:02:13;;;;;;;5.97;2.53;;;;;;;-1.53;94.82;96688.75;5036351;28;20053;-61
2024/01/16 10:04:42;;;;;;;6.88;3.13;;;;;;;-1.49;95.34;96691.81;5035365;28;20041;-62
2024/01/16 10:07:15;;;;;;;6.55;3.08;;;;;;;-1.55;95.93;96695.25;5044967;28;20048;-60
2024/01/16 10:09:43;;;;;;;5.47;2.38;;;;;;;-1.53;94.65;96702.03;5036086;28;20045;-60
2024/01/16 10:12:10;;;;;;;5.15;2.25;;;;;;;-1.35;95.22;96700.72;5035455;28;20673;-61
2024/01/16 10:14:38;;;;;;;8.82;2.50;;;;;;;-1.25;94.28;96690.56;5039313;28;20044;-61
2024/01/16 10:17:05;;;;;;;6.00;2.30;;;;;;;-1.22;93.23;96673.47;5037721;28;20465;-61
2024/01/16 10:19:32;;;;;;;6.63;2.92;;;;;;;-1.03;93.20;96666.63;5037744;28;20127;-60
2024/01/16 10:22:20;;;;;;;5.43;2.63;;;;;;;-0.87;91.61;96669.97;5033930;28;20041;-60
2024/01/16 10:25:16;;;;;;;5.45;2.28;;;;;;;-0.93;91.79;96659.13;5040681;28;20128;-61
2024/01/16 10:27:43;;;;;;;4.68;2.30;;;;;;;-0.94;91.69;96657.47;5029366;28;20127;-61
2024/01/16 10:30:10;;;;;;;4.38;2.28;;;;;;;-0.81;89.57;96655.91;5039342;28;20044;-64
2024/01/16 10:32:42;;;;;;;4.53;2.17;;;;;;;-0.82;90.22;96652.41;5039878;28;20044;-61
2024/01/16 10:35:13;;;;;;;4.18;1.92;;;;;;;-0.70;89.38;96651.88;5034565;28;20133;-63
2024/01/16 10:37:51;;;;;;;7.85;2.38;;;;;;;-0.43;88.35;96655.47;5041123;28;20041;-64
2024/01/16 10:40:29;;;;;;;6.55;2.17;;;;;;;-0.30;88.80;96651.19;5039706;28;20646;-63
2024/01/16 10:43:00;;;;;;;4.50;2.03;;;;;;;-0.20;85.31;96654.28;5033139;28;20765;-66
2024/01/16 10:45:27;;;;;;;4.28;1.92;;;;;;;-0.12;83.63;96657.81;5033976;28;20049;-65
2024/01/16 10:48:02;;;;;;;5.85;2.35;;;;;;;-0.21;83.93;96662.47;5038038;28;20041;-62
2024/01/16 10:50:30;;;;;;;5.97;3.03;;;;;;;-0.35;86.57;96659.78;5038745;28;20091;-62
2024/01/16 10:53:00;;;;;;;4.20;2.00;;;;;;;-0.38;88.34;96654.84;5041891;28;20041;-62
2024/01/16 10:55:30;;;;;;;6.97;2.22;;;;;;;-0.31;87.59;96641.56;5040094;28;20041;-63
2024/01/16 10:57:58;;;;;;;5.22;2.15;;;;;;;-0.33;86.25;96644.41;5036246;28;20709;-63
2024/01/16 11:00:24;;;;;;;4.88;2.08;;;;;;;-0.48;84.65;96633.94;5031259;28;21614;-64
2024/01/16 11:03:12;;;;;;;4.35;2.08;;;;;;;-0.55;86.51;96633.91;5041115;28;20076;-62
2024/01/16 11:05:39;;;;;;;4.88;1.85;;;;;;;-0.45;85.44;96635.38;5033174;28;20033;-63
2024/01/16 11:08:08;;;;;;;6.32;2.15;;;;;;;-0.59;84.89;96638.00;5041025;28;20068;-63
2024/01/16 11:10:35;;;;;;;4.90;1.95;;;;;;;-0.56;86.49;96637.59;5029911;28;20049;-61
2024/01/16 11:13:05;;;;;;;3.78;1.80;;;;;;;-0.53;86.48;96633.72;5035325;28;20099;-63
2024/01/16 11:15:32;;;;;;;5.05;2.13;;;;;;;-0.55;85.58;96633.91;5038137;28;20116;-62
2024/01/16 11:18:02;;;;;;;2.95;1.50;;;;;;;-0.55;84.39;96625.13;5034775;28;20631;-61
2024/01/16 11:20:31;;;;;;;4.15;1.70;;;;;;;-0.56;82.93;96626.97;5039643;28;20527;-61
2024/01/16 11:23:17;;;;;;;5.63;1.98;;;;;;;-0.60;83.04;96622.22;5024438;28;20084;-62
2024/01/16 11:25:44;;;;;;;3.35;1.23;;;;;;;-0.54;82.59;96616.97;5033241;28;20040;-64